Corpus Christi, Texas
Current Conditions -  °F | °C
As of 2:51 AM on Saturday 25 Oct 2014 (Local Time) from KCRP Reporting Station
Clear Clear  
Wind Chill: 18°   Ceiling: Unl
Heat Index: 18°   Visibility: 10mi
Dew Point: 16°   Wind: 5mph
Humidity: 90%   Direction: 270°W
Pressure: 30.13"   Gusts: NA
Location:  27.8°N, 97.4°W
Report Text: KCRP 250751Z 27004KT 10SM CLR 18/16 A3013 RMK AO2 SLP200 T01780161
Loading
Personal Weather Stations






























Interactive Weather Map
Tropical Storm Tracking
New forecast layout! Learn more

10-Day Weather Forecast

Advertisements
Track Severe Weather on mobile